createdAt,value
2023-02-19T00:01:46.086Z,0.88
2023-02-19T00:04:16.813Z,0.60
2023-02-19T00:06:44.994Z,0.85
2023-02-19T00:09:13.550Z,0.88
2023-02-19T00:11:41.408Z,0.60
2023-02-19T00:14:09.126Z,0.80
2023-02-19T00:16:37.816Z,0.80
2023-02-19T00:19:07.037Z,0.60
2023-02-19T00:21:35.584Z,0.95
2023-02-19T00:24:05.976Z,0.68
2023-02-19T00:26:33.905Z,0.60
2023-02-19T00:29:01.838Z,0.70
2023-02-19T00:31:32.773Z,0.60
2023-02-19T00:34:03.074Z,0.68
2023-02-19T00:36:31.229Z,0.70
2023-02-19T00:38:59.628Z,0.57
2023-02-19T00:41:27.378Z,0.80
2023-02-19T00:43:56.300Z,0.65
2023-02-19T00:46:25.263Z,0.80
2023-02-19T00:48:53.041Z,0.80
2023-02-19T00:51:20.982Z,0.50
2023-02-19T00:53:48.230Z,0.80
2023-02-19T00:56:16.688Z,0.80
2023-02-19T00:58:43.809Z,0.70
2023-02-19T01:01:11.641Z,0.77
2023-02-19T01:03:39.598Z,0.82
2023-02-19T01:06:09.151Z,0.80
2023-02-19T01:08:37.102Z,0.63
2023-02-19T01:11:06.018Z,0.65
2023-02-19T01:13:34.965Z,0.70
2023-02-19T01:16:06.494Z,0.50
2023-02-19T01:18:34.385Z,0.70
2023-02-19T01:21:05.775Z,0.68
2023-02-19T01:23:33.103Z,0.77
2023-02-19T01:26:00.224Z,0.60
2023-02-19T01:28:27.408Z,0.70
2023-02-19T01:30:55.831Z,0.70
2023-02-19T01:33:22.929Z,0.70
2023-02-19T01:35:50.155Z,0.60
2023-02-19T01:38:17.234Z,0.70
2023-02-19T01:40:44.322Z,0.70
2023-02-19T01:43:16.001Z,0.60
2023-02-19T01:45:44.203Z,0.60
2023-02-19T01:48:17.466Z,0.63
2023-02-19T01:50:48.823Z,0.67
2023-02-19T01:53:20.765Z,0.60
2023-02-19T01:55:52.803Z,0.57
2023-02-19T01:58:20.181Z,0.60
2023-02-19T02:00:47.853Z,0.55
2023-02-19T02:03:16.297Z,0.63
2023-02-19T02:05:53.522Z,0.57
2023-02-19T02:08:20.878Z,0.65
2023-02-19T02:10:48.469Z,0.50
2023-02-19T02:13:15.902Z,0.77
2023-02-19T02:15:51.605Z,0.65
2023-02-19T02:18:31.290Z,0.70
2023-02-19T02:21:11.830Z,0.70
2023-02-19T02:23:54.767Z,0.68
2023-02-19T02:26:32.472Z,0.52
2023-02-19T02:29:30.779Z,0.70
2023-02-19T02:32:05.140Z,0.50
2023-02-19T02:34:41.298Z,0.50
2023-02-19T02:37:09.990Z,0.60
2023-02-19T02:39:38.789Z,0.80
2023-02-19T02:42:06.010Z,0.80
2023-02-19T02:44:34.799Z,0.60
2023-02-19T02:47:06.500Z,0.50
2023-02-19T02:49:35.335Z,0.50
2023-02-19T02:52:02.702Z,0.50
2023-02-19T02:54:33.507Z,0.50
2023-02-19T02:57:01.800Z,0.60
2023-02-19T02:59:33.806Z,0.75
2023-02-19T03:02:06.179Z,0.75
2023-02-19T03:04:42.601Z,0.50
2023-02-19T03:07:10.422Z,0.57
2023-02-19T03:09:41.513Z,0.30
2023-02-19T03:12:13.197Z,0.43
2023-02-19T03:14:44.772Z,0.50
2023-02-19T03:17:19.048Z,0.70
2023-02-19T03:19:52.620Z,0.43
2023-02-19T03:22:24.538Z,0.60
2023-02-19T03:24:56.353Z,0.52
2023-02-19T03:27:26.343Z,0.60
2023-02-19T03:29:55.021Z,0.50
2023-02-19T03:32:29.701Z,0.60
2023-02-19T03:35:00.882Z,0.77
2023-02-19T03:37:32.610Z,0.50
2023-02-19T03:39:59.738Z,0.50
2023-02-19T03:42:36.129Z,0.65
2023-02-19T03:45:17.679Z,0.50
2023-02-19T03:47:52.473Z,0.60
2023-02-19T03:50:24.334Z,0.60
2023-02-19T03:52:59.457Z,0.52
2023-02-19T03:55:32.083Z,0.65
2023-02-19T03:58:06.768Z,0.50
2023-02-19T04:00:40.518Z,0.55
2023-02-19T04:03:17.734Z,0.70
2023-02-19T04:05:48.618Z,0.52
2023-02-19T04:08:19.146Z,0.40
2023-02-19T04:10:47.480Z,0.50
2023-02-19T04:13:19.920Z,0.50
2023-02-19T04:15:49.565Z,0.70
2023-02-19T04:18:22.536Z,0.50
2023-02-19T04:20:50.609Z,0.52
2023-02-19T04:23:22.210Z,0.50
2023-02-19T04:25:54.988Z,0.50
2023-02-19T04:28:22.246Z,0.60
2023-02-19T04:30:49.450Z,0.57
2023-02-19T04:33:18.005Z,0.40
2023-02-19T04:35:45.097Z,0.50
2023-02-19T04:38:12.215Z,0.50
2023-02-19T04:40:39.294Z,0.65
2023-02-19T04:43:06.387Z,0.50
2023-02-19T04:45:33.596Z,0.70
2023-02-19T04:48:00.672Z,0.65
2023-02-19T04:50:29.117Z,0.52
2023-02-19T04:52:56.208Z,0.50
2023-02-19T04:55:23.320Z,0.73
2023-02-19T04:57:50.386Z,0.75
2023-02-19T05:00:17.511Z,0.45
2023-02-19T05:02:44.637Z,0.47
2023-02-19T05:05:11.768Z,0.40
2023-02-19T05:07:40.232Z,0.60
2023-02-19T05:10:07.895Z,0.50
2023-02-19T05:12:34.962Z,0.40
2023-02-19T05:15:02.037Z,0.60
2023-02-19T05:17:29.150Z,0.90
2023-02-19T05:19:56.230Z,0.88
2023-02-19T05:22:23.316Z,0.70
2023-02-19T05:24:51.758Z,0.88
2023-02-19T05:27:18.826Z,0.77
2023-02-19T05:29:46.024Z,0.50
2023-02-19T05:32:13.240Z,0.68
2023-02-19T05:34:40.339Z,0.90
2023-02-19T05:37:07.401Z,0.75
2023-02-19T05:39:34.520Z,0.68
2023-02-19T05:42:03.188Z,0.65
2023-02-19T05:44:30.262Z,0.90
2023-02-19T05:46:57.385Z,0.70
2023-02-19T05:49:24.458Z,0.47
2023-02-19T05:51:51.576Z,0.80
2023-02-19T05:54:18.679Z,0.60
2023-02-19T05:56:45.902Z,0.77
2023-02-19T05:59:18.390Z,0.70
2023-02-19T06:01:45.980Z,0.60
2023-02-19T06:04:14.135Z,1.00
2023-02-19T06:06:42.487Z,0.75
2023-02-19T06:09:10.405Z,0.52
2023-02-19T06:11:37.700Z,0.93
2023-02-19T06:14:05.468Z,0.65
2023-02-19T06:16:33.862Z,0.90
2023-02-19T06:19:02.467Z,0.75
2023-02-19T06:21:29.579Z,0.50
2023-02-19T06:23:56.832Z,0.80
2023-02-19T06:26:24.945Z,0.60
2023-02-19T06:28:53.317Z,0.57
2023-02-19T06:31:21.932Z,0.65
2023-02-19T06:33:50.501Z,0.65
2023-02-19T06:36:20.187Z,0.82
2023-02-19T06:38:47.502Z,0.68
2023-02-19T06:41:14.998Z,0.52
2023-02-19T06:43:42.252Z,0.60
2023-02-19T06:46:12.024Z,0.85
2023-02-19T06:48:40.627Z,0.80
2023-02-19T06:51:11.935Z,0.70
2023-02-19T06:53:39.142Z,0.65
2023-02-19T06:56:08.244Z,0.70
2023-02-19T06:58:35.378Z,0.70
2023-02-19T07:01:03.007Z,0.70
2023-02-19T07:03:30.124Z,0.63
2023-02-19T07:05:59.410Z,0.70
2023-02-19T07:08:29.577Z,0.60
2023-02-19T07:10:58.360Z,0.60
2023-02-19T07:13:26.769Z,0.85
2023-02-19T07:15:59.007Z,0.70
2023-02-19T07:18:26.429Z,0.90
2023-02-19T07:20:53.606Z,0.80
2023-02-19T07:23:20.719Z,0.70
2023-02-19T07:25:49.301Z,0.50
2023-02-19T07:28:16.373Z,0.70
2023-02-19T07:30:43.478Z,0.60
2023-02-19T07:33:10.861Z,0.60
2023-02-19T07:35:38.030Z,1.20
2023-02-19T07:38:05.097Z,0.98
2023-02-19T07:40:32.232Z,0.90
2023-02-19T07:43:00.771Z,0.98
2023-02-19T07:45:27.908Z,0.90
2023-02-19T07:47:55.030Z,1.40
2023-02-19T07:50:22.132Z,1.00
2023-02-19T07:52:49.197Z,1.10
2023-02-19T07:55:16.481Z,1.58
2023-02-19T07:57:43.613Z,0.90
2023-02-19T08:00:13.646Z,0.80
2023-02-19T08:02:40.951Z,0.70
2023-02-19T08:05:08.293Z,1.35
2023-02-19T08:07:36.420Z,1.00
2023-02-19T08:10:04.743Z,0.60
2023-02-19T08:12:31.849Z,0.75
2023-02-19T08:14:58.973Z,1.10
2023-02-19T08:17:27.653Z,0.88
2023-02-19T08:19:54.828Z,0.70
2023-02-19T08:22:21.914Z,0.82
2023-02-19T08:24:49.153Z,1.17
2023-02-19T08:27:16.353Z,0.80
2023-02-19T08:29:43.432Z,0.85
2023-02-19T08:32:10.624Z,0.70
2023-02-19T08:34:39.220Z,0.80
2023-02-19T08:37:06.411Z,0.70
2023-02-19T08:39:33.703Z,0.80
2023-02-19T08:42:00.785Z,0.80
2023-02-19T08:44:27.839Z,0.80
2023-02-19T08:46:54.951Z,0.77
2023-02-19T08:49:25.453Z,0.80
2023-02-19T08:51:53.879Z,0.63
2023-02-19T08:54:20.991Z,0.55
2023-02-19T08:56:48.080Z,0.88
2023-02-19T08:59:15.146Z,0.80
2023-02-19T09:01:42.272Z,1.00
2023-02-19T09:04:11.843Z,1.15
2023-02-19T09:06:40.154Z,1.52
2023-02-19T09:09:08.792Z,1.10
2023-02-19T09:11:38.867Z,0.93
2023-02-19T09:14:05.981Z,0.93
2023-02-19T09:16:33.123Z,1.02
2023-02-19T09:19:00.204Z,0.88
2023-02-19T09:21:27.464Z,0.80
2023-02-19T09:23:54.542Z,0.80
2023-02-19T09:26:22.990Z,0.57
2023-02-19T09:28:50.061Z,0.65
2023-02-19T09:31:17.340Z,0.70
2023-02-19T09:33:45.026Z,1.23
2023-02-19T09:36:13.114Z,2.78
2023-02-19T09:38:40.260Z,4.38
2023-02-19T09:41:10.168Z,1.90
2023-02-19T09:43:38.828Z,1.58
2023-02-19T09:46:15.003Z,1.42
2023-02-19T09:48:42.145Z,1.38
2023-02-19T09:51:11.022Z,1.50
2023-02-19T09:53:43.907Z,1.17
2023-02-19T09:56:10.989Z,1.42
2023-02-19T09:58:46.207Z,0.93
2023-02-19T10:01:13.786Z,1.08
2023-02-19T10:03:44.878Z,1.33
2023-02-19T10:06:17.998Z,1.20
2023-02-19T10:08:46.346Z,1.40
2023-02-19T10:11:14.216Z,1.05
2023-02-19T10:13:45.854Z,1.10
2023-02-19T10:16:17.492Z,1.30
2023-02-19T10:18:45.943Z,1.23
2023-02-19T10:21:17.390Z,1.23
2023-02-19T10:23:44.610Z,1.02
2023-02-19T10:26:11.821Z,1.05
2023-02-19T10:28:39.257Z,1.23
2023-02-19T10:31:18.368Z,1.67
2023-02-19T10:33:50.829Z,1.05
2023-02-19T10:36:26.334Z,1.15
2023-02-19T10:38:54.485Z,1.55
2023-02-19T10:41:24.514Z,1.00
2023-02-19T10:43:56.335Z,1.15
2023-02-19T10:46:27.917Z,1.17
2023-02-19T10:48:58.130Z,1.20
2023-02-19T10:51:32.147Z,1.20
2023-02-19T10:54:07.722Z,1.00
2023-02-19T10:56:35.054Z,1.23
2023-02-19T10:59:21.050Z,1.25
2023-02-19T11:02:00.201Z,1.10
2023-02-19T11:04:28.891Z,1.25
2023-02-19T11:06:56.162Z,1.25
2023-02-19T11:09:27.961Z,1.00
2023-02-19T11:11:57.231Z,1.23
2023-02-19T11:14:25.669Z,1.10
2023-02-19T11:16:55.071Z,0.90
2023-02-19T11:19:27.815Z,1.02
2023-02-19T11:21:55.672Z,0.85
2023-02-19T11:24:28.663Z,0.95
2023-02-19T11:26:56.672Z,0.90
2023-02-19T11:29:25.557Z,1.02
2023-02-19T11:31:52.920Z,1.13
2023-02-19T11:34:29.694Z,1.00
2023-02-19T11:37:12.197Z,1.30
2023-02-19T11:39:42.251Z,0.73
2023-02-19T11:42:29.605Z,0.90
2023-02-19T11:45:22.868Z,1.00
2023-02-19T11:48:08.271Z,0.80
2023-02-19T11:51:02.298Z,1.20
2023-02-19T11:53:32.384Z,0.80
2023-02-19T11:56:10.859Z,0.98
2023-02-19T11:59:00.839Z,0.85
2023-02-19T12:01:51.013Z,0.90
2023-02-19T12:04:47.366Z,0.77
2023-02-19T12:07:29.050Z,1.10
2023-02-19T12:10:07.926Z,0.85
2023-02-19T12:12:46.358Z,1.02
2023-02-19T12:15:27.029Z,1.20
2023-02-19T12:18:23.621Z,0.77
2023-02-19T12:21:06.150Z,0.90
2023-02-19T12:24:01.255Z,0.95
2023-02-19T12:26:30.624Z,0.80
2023-02-19T12:29:17.656Z,0.80
2023-02-19T12:32:29.309Z,0.80
2023-02-19T12:35:30.337Z,0.70
2023-02-19T12:38:06.740Z,0.77
2023-02-19T12:40:50.204Z,0.73
2023-02-19T12:43:19.538Z,0.70
2023-02-19T12:45:52.530Z,0.90
2023-02-19T12:48:29.484Z,1.45
2023-02-19T12:51:02.777Z,0.70
2023-02-19T12:53:40.096Z,0.60
2023-02-19T12:56:14.700Z,0.88
2023-02-19T12:58:47.627Z,0.80
2023-02-19T13:01:22.043Z,0.80
2023-02-19T13:03:52.998Z,0.80
2023-02-19T13:06:33.852Z,0.82
2023-02-19T13:09:07.209Z,0.70
2023-02-19T13:11:41.747Z,0.90
2023-02-19T13:14:20.235Z,0.70
2023-02-19T13:16:52.664Z,0.90
2023-02-19T13:19:19.878Z,0.80
2023-02-19T13:21:52.686Z,0.90
2023-02-19T13:24:23.646Z,0.80
2023-02-19T13:27:04.163Z,0.80
2023-02-19T13:29:47.780Z,0.90
2023-02-19T13:32:39.110Z,0.93
2023-02-19T13:35:25.672Z,0.80
2023-02-19T13:37:54.700Z,1.00
2023-02-19T13:40:30.675Z,0.77
2023-02-19T13:43:02.280Z,0.80
2023-02-19T13:45:35.292Z,1.20
2023-02-19T13:48:15.249Z,0.98
2023-02-19T13:50:42.395Z,0.90
2023-02-19T13:53:49.336Z,1.23
2023-02-19T13:56:38.386Z,0.90
2023-02-19T13:59:25.218Z,0.80
2023-02-19T14:02:10.847Z,0.80
2023-02-19T14:04:52.353Z,1.10
2023-02-19T14:07:47.335Z,0.90
2023-02-19T14:10:55.355Z,1.20
2023-02-19T14:13:56.063Z,0.90
2023-02-19T14:16:56.840Z,1.10
2023-02-19T14:19:47.841Z,0.95
2023-02-19T14:22:47.418Z,1.00
2023-02-19T14:25:28.909Z,0.88
2023-02-19T14:28:01.884Z,1.02
2023-02-19T14:30:31.271Z,1.00
2023-02-19T14:33:10.356Z,1.50
2023-02-19T14:35:40.747Z,1.00
2023-02-19T14:38:16.646Z,0.70
2023-02-19T14:40:46.405Z,1.13
2023-02-19T14:43:16.422Z,0.82
2023-02-19T14:45:47.520Z,1.00
2023-02-19T14:48:21.742Z,1.20
2023-02-19T14:50:55.773Z,0.90
2023-02-19T14:53:24.502Z,1.10
2023-02-19T14:55:52.872Z,1.35
2023-02-19T14:58:24.392Z,1.00
2023-02-19T15:00:51.578Z,0.90
2023-02-19T15:03:32.725Z,1.20
2023-02-19T15:06:04.084Z,1.10
2023-02-19T15:08:35.795Z,0.98
2023-02-19T15:11:08.030Z,0.95
2023-02-19T15:13:35.429Z,1.00
2023-02-19T15:16:02.629Z,1.13
2023-02-19T15:18:31.207Z,1.20
2023-02-19T15:21:00.913Z,0.90
2023-02-19T15:23:29.892Z,1.20
2023-02-19T15:25:58.350Z,1.10
2023-02-19T15:28:32.343Z,0.90
2023-02-19T15:31:20.546Z,1.05
2023-02-19T15:33:52.738Z,1.30
2023-02-19T15:36:32.111Z,1.00
2023-02-19T15:39:01.825Z,1.00
2023-02-19T15:41:33.316Z,1.30
2023-02-19T15:44:15.681Z,0.82
2023-02-19T15:46:44.470Z,0.98
2023-02-19T15:49:18.102Z,0.90
2023-02-19T15:51:52.229Z,0.90
2023-02-19T15:56:57.445Z,1.10
2023-02-19T15:59:31.087Z,0.80
2023-02-19T16:01:59.718Z,0.85
2023-02-19T16:04:28.286Z,0.90
2023-02-19T16:06:58.164Z,0.90
2023-02-19T16:09:30.077Z,0.80
2023-02-19T16:11:58.853Z,1.00
2023-02-19T16:14:30.467Z,0.80
2023-02-19T16:17:04.215Z,1.00
2023-02-19T16:19:42.490Z,0.90
2023-02-19T16:22:11.284Z,1.00
2023-02-19T16:24:42.829Z,0.80
2023-02-19T16:27:09.982Z,0.93
2023-02-19T16:29:38.280Z,0.70
2023-02-19T16:32:07.632Z,0.80
2023-02-19T16:34:40.510Z,0.80
2023-02-19T16:37:46.043Z,0.93
2023-02-19T16:40:46.615Z,0.80
2023-02-19T16:43:29.451Z,0.90
2023-02-19T16:45:57.292Z,0.80
2023-02-19T16:48:24.465Z,1.00
2023-02-19T16:50:53.141Z,0.82
2023-02-19T16:53:21.518Z,1.00
2023-02-19T16:55:48.610Z,0.90
2023-02-19T16:58:15.731Z,0.90
2023-02-19T17:00:43.127Z,0.85
2023-02-19T17:03:13.673Z,1.10
2023-02-19T17:05:41.709Z,0.95
2023-02-19T17:08:25.334Z,0.90
2023-02-19T17:10:54.060Z,0.80
2023-02-19T17:13:22.928Z,0.90
2023-02-19T17:15:50.047Z,1.17
2023-02-19T17:18:17.251Z,1.00
2023-02-19T17:20:48.314Z,1.00
2023-02-19T17:23:16.753Z,1.00
2023-02-19T17:25:43.815Z,0.80
2023-02-19T17:28:10.905Z,0.70
2023-02-19T17:30:40.129Z,0.77
2023-02-19T17:33:07.590Z,0.75
2023-02-19T17:35:34.700Z,0.88
2023-02-19T17:38:01.797Z,1.15
2023-02-19T17:40:33.746Z,0.98
2023-02-19T17:43:01.433Z,0.90
2023-02-19T17:45:28.583Z,1.00
2023-02-19T17:47:55.671Z,0.85
2023-02-19T17:50:25.220Z,1.05
2023-02-19T17:52:52.343Z,0.75
2023-02-19T17:55:19.679Z,0.85
2023-02-19T17:57:49.988Z,0.98
2023-02-19T18:00:19.214Z,0.90
2023-02-19T18:02:46.338Z,0.90
2023-02-19T18:05:13.523Z,0.90
2023-02-19T18:07:40.596Z,1.40
2023-02-19T18:10:08.455Z,1.27
2023-02-19T18:12:35.606Z,1.00
2023-02-19T18:15:04.632Z,1.00
2023-02-19T18:17:31.694Z,1.10
2023-02-19T18:19:58.792Z,1.13
2023-02-19T18:22:25.886Z,0.93
2023-02-19T18:24:54.753Z,1.00
2023-02-19T18:27:21.856Z,0.90
2023-02-19T18:29:49.847Z,1.27
2023-02-19T18:32:19.677Z,1.00
2023-02-19T18:34:49.097Z,1.23
2023-02-19T18:37:16.256Z,0.90
2023-02-19T18:39:43.356Z,1.00
2023-02-19T18:42:10.546Z,0.90
2023-02-19T18:44:38.085Z,0.90
2023-02-19T18:47:06.147Z,0.95
2023-02-19T18:49:34.697Z,0.90
2023-02-19T18:52:01.794Z,0.98
2023-02-19T18:54:29.594Z,0.90
2023-02-19T18:56:57.525Z,1.10
2023-02-19T18:59:24.700Z,0.82
2023-02-19T19:01:51.971Z,0.80
2023-02-19T19:04:19.208Z,1.13
2023-02-19T19:06:47.681Z,1.00
2023-02-19T19:09:14.953Z,0.80
2023-02-19T19:11:42.058Z,1.02
2023-02-19T19:14:09.127Z,1.00
2023-02-19T19:16:36.213Z,1.02
2023-02-19T19:19:03.644Z,1.10
2023-02-19T19:21:30.981Z,1.30
2023-02-19T19:23:59.611Z,1.00
2023-02-19T19:26:26.940Z,1.10
2023-02-19T19:28:54.032Z,0.93
2023-02-19T19:31:22.123Z,1.33
2023-02-19T19:33:49.280Z,0.90
2023-02-19T19:36:20.038Z,1.20
2023-02-19T19:38:47.165Z,0.85
2023-02-19T19:41:16.272Z,1.00
2023-02-19T19:43:43.503Z,0.90
2023-02-19T19:46:10.742Z,0.85
2023-02-19T19:48:39.479Z,0.88
2023-02-19T19:51:06.589Z,1.00
2023-02-19T19:53:33.739Z,1.30
2023-02-19T19:56:01.032Z,1.00
2023-02-19T19:58:29.506Z,1.05
2023-02-19T20:00:57.008Z,1.10
2023-02-19T20:03:24.129Z,0.98
2023-02-19T20:05:51.326Z,1.10
2023-02-19T20:08:18.629Z,1.05
2023-02-19T20:10:45.993Z,1.02
2023-02-19T20:13:16.124Z,1.02
2023-02-19T20:15:44.693Z,1.20
2023-02-19T20:18:12.248Z,1.05
2023-02-19T20:20:39.338Z,1.13
2023-02-19T20:23:06.412Z,0.90
2023-02-19T20:25:33.511Z,1.25
2023-02-19T20:28:00.592Z,0.80
2023-02-19T20:30:27.918Z,0.80
2023-02-19T20:32:56.492Z,1.20
2023-02-19T20:35:25.691Z,1.33
2023-02-19T20:37:53.505Z,1.10
2023-02-19T20:40:20.726Z,0.95
2023-02-19T20:42:47.886Z,0.93
2023-02-19T20:45:15.085Z,0.85
2023-02-19T20:47:42.315Z,1.08
2023-02-19T20:50:11.927Z,1.00
2023-02-19T20:52:39.122Z,0.90
2023-02-19T20:55:07.305Z,1.00
2023-02-19T20:57:34.378Z,1.15
2023-02-19T21:00:01.465Z,1.02
2023-02-19T21:02:28.618Z,0.80
2023-02-19T21:04:55.968Z,0.90
2023-02-19T21:07:25.051Z,0.95
2023-02-19T21:09:52.344Z,0.90
2023-02-19T21:12:19.532Z,0.90
2023-02-19T21:14:46.732Z,1.10
2023-02-19T21:17:13.900Z,0.95
2023-02-19T21:19:41.186Z,1.02
2023-02-19T21:22:08.330Z,0.88
2023-02-19T21:24:36.825Z,0.85
2023-02-19T21:27:04.252Z,1.25
2023-02-19T21:29:31.325Z,1.00
2023-02-19T21:31:58.578Z,1.00
2023-02-19T21:34:27.379Z,0.80
2023-02-19T21:36:55.255Z,0.90
2023-02-19T21:39:24.216Z,1.05
2023-02-19T21:41:52.736Z,1.13
2023-02-19T21:44:20.333Z,1.10
2023-02-19T21:46:47.563Z,1.00
2023-02-19T21:49:14.799Z,0.88
2023-02-19T21:51:43.725Z,0.90
2023-02-19T21:54:15.691Z,1.02
2023-02-19T21:56:43.084Z,0.90
2023-02-19T21:59:11.517Z,1.10
2023-02-19T22:01:40.047Z,1.15
2023-02-19T22:04:08.849Z,0.90
2023-02-19T22:06:36.054Z,1.05
2023-02-19T22:09:03.220Z,0.85
2023-02-19T22:11:30.330Z,0.80
2023-02-19T22:13:57.632Z,1.17
2023-02-19T22:16:26.536Z,1.10
2023-02-19T22:18:55.315Z,1.00
2023-02-19T22:21:24.648Z,0.88
2023-02-19T22:23:53.619Z,0.90
2023-02-19T22:26:22.775Z,1.05
2023-02-19T22:28:50.092Z,1.00
2023-02-19T22:31:18.496Z,0.98
2023-02-19T22:33:47.184Z,0.82
2023-02-19T22:36:15.469Z,1.10
2023-02-19T22:38:42.656Z,0.90
2023-02-19T22:41:10.176Z,0.88
2023-02-19T22:43:37.479Z,0.95
2023-02-19T22:46:08.538Z,0.80
2023-02-19T22:48:35.625Z,0.80
2023-02-19T22:51:04.309Z,1.00
2023-02-19T22:53:31.391Z,0.80
2023-02-19T22:55:58.456Z,0.80
2023-02-19T22:58:25.526Z,0.80
2023-02-19T23:00:52.656Z,1.00
2023-02-19T23:03:19.744Z,0.80
2023-02-19T23:05:46.810Z,1.17
2023-02-19T23:08:15.233Z,1.02
2023-02-19T23:10:42.315Z,0.90
2023-02-19T23:13:09.433Z,0.95
2023-02-19T23:15:36.532Z,0.95
2023-02-19T23:18:03.849Z,1.30
2023-02-19T23:20:31.199Z,0.80
2023-02-19T23:22:58.316Z,0.82
2023-02-19T23:25:26.910Z,0.98
2023-02-19T23:27:53.997Z,1.27
2023-02-19T23:30:21.228Z,1.00
2023-02-19T23:32:48.330Z,0.98
2023-02-19T23:35:15.536Z,0.68
2023-02-19T23:37:42.643Z,0.88
2023-02-19T23:40:11.366Z,0.82
2023-02-19T23:42:39.763Z,1.08
2023-02-19T23:45:07.500Z,0.90
2023-02-19T23:47:34.589Z,0.85
2023-02-19T23:50:01.674Z,0.90
2023-02-19T23:52:28.760Z,1.20
2023-02-19T23:54:55.901Z,0.80
2023-02-19T23:57:22.983Z,1.00
2023-02-19T23:59:51.439Z,0.80
